Hlavní strana
METAR-TAF:

METAR-TAF

Letiště :

Ashland, Kentucky, Spojené státy americké

zeměpisná šířka: 38-33-16N, zeměpisná délka: 082-44-17W, výška: 166 m

Aktuální stav počasí

Zpráva byla vytvořena před 1 hodinou a 4 minutami, v 03:56 UTC
Západní vítr 4 kt
Teplota 22°C
Vlhkost vzduchu 94%
Tlak 1014 hPa
Viditelnost: 16.1 km
Skoro jasno ve výšce 3100 ft
Oblačno až skoro zataženo ve výšce 5500 ft

METAR: KDWU 220356Z AUTO 27004KT 10SM FEW031 BKN055 22/21 A2993 RMK AO2 SLP131 T02170206 402720211 PNO $

Čas: 01:00 (05:00 UTC)


TAF: chybějící

Stav a předpovědi počasí z více než 4 000 letišť (zprávy METAR a TAF).

Červené a žluté tečky na mapě představují dostupné meteorologické stanice.

Když kurzor umístíte na tečku, zobrazí se název stanice.

Pak kliknutím zobrazíte stav a předpověď počasí.

Chcete-li změnit mapu, kliknutím na zelené tlačítko se znaménkem +mapu přiblížíte, kliknutím na zelené tlačítko se znaménkem – mapu oddálíte a kliknutím na zelené šipky přejdete na sousední mapy.


METAR-TAF: